sensor_id;sensor_type;location;lat;lon;timestamp;pressure;altitude;pressure_sealevel;temperature;humidity
83264;BME280;73156;50.988;11.034;2024-02-23T00:01:27;96597.94;;;19.12;41.74
83264;BME280;73156;50.988;11.034;2024-02-23T00:03:52;96608.78;;;19.14;41.35
83264;BME280;73156;50.988;11.034;2024-02-23T00:06:18;96618.28;;;19.13;41.48
83264;BME280;73156;50.988;11.034;2024-02-23T00:08:43;96632.53;;;19.11;41.32
83264;BME280;73156;50.988;11.034;2024-02-23T00:11:08;96574.56;;;18.83;41.55
83264;BME280;73156;50.988;11.034;2024-02-23T00:13:34;96620.50;;;19.02;41.26
83264;BME280;73156;50.988;11.034;2024-02-23T00:15:59;96648.41;;;19.11;41.24
83264;BME280;73156;50.988;11.034;2024-02-23T00:18:24;96644.84;;;19.10;41.06
83264;BME280;73156;50.988;11.034;2024-02-23T00:20:49;96646.47;;;19.11;41.12
83264;BME280;73156;50.988;11.034;2024-02-23T00:23:15;96648.41;;;19.11;41.32
83264;BME280;73156;50.988;11.034;2024-02-23T00:25:40;96633.44;;;18.98;41.07
83264;BME280;73156;50.988;11.034;2024-02-23T00:28:06;96662.34;;;19.11;41.23
83264;BME280;73156;50.988;11.034;2024-02-23T00:30:31;96658.25;;;19.08;41.39
83264;BME280;73156;50.988;11.034;2024-02-23T00:32:56;96648.38;;;19.02;41.15
83264;BME280;73156;50.988;11.034;2024-02-23T00:35:21;96626.44;;;18.79;41.18
83264;BME280;73156;50.988;11.034;2024-02-23T00:37:47;96683.41;;;18.95;41.20
83264;BME280;73156;50.988;11.034;2024-02-23T00:40:12;96636.09;;;18.73;40.93
83264;BME280;73156;50.988;11.034;2024-02-23T00:42:38;96644.31;;;18.78;40.98
83264;BME280;73156;50.988;11.034;2024-02-23T00:45:05;96712.44;;;19.02;40.61
83264;BME280;73156;50.988;11.034;2024-02-23T00:47:30;96736.28;;;19.08;40.54
83264;BME280;73156;50.988;11.034;2024-02-23T00:49:55;96715.06;;;18.99;40.83
83264;BME280;73156;50.988;11.034;2024-02-23T00:52:21;96687.47;;;18.89;40.57
83264;BME280;73156;50.988;11.034;2024-02-23T00:54:46;96746.91;;;19.06;40.38
83264;BME280;73156;50.988;11.034;2024-02-23T00:57:11;96768.06;;;19.07;40.33
83264;BME280;73156;50.988;11.034;2024-02-23T00:59:37;96745.72;;;18.77;40.40
83264;BME280;73156;50.988;11.034;2024-02-23T01:02:02;96793.94;;;19.08;40.10
83264;BME280;73156;50.988;11.034;2024-02-23T01:04:27;96790.69;;;19.06;40.27
83264;BME280;73156;50.988;11.034;2024-02-23T01:06:52;96778.63;;;18.97;40.29
83264;BME280;73156;50.988;11.034;2024-02-23T01:09:18;96791.44;;;18.98;40.18
83264;BME280;73156;50.988;11.034;2024-02-23T01:11:46;96778.19;;;18.81;40.22
83264;BME280;73156;50.988;11.034;2024-02-23T01:14:11;96814.03;;;18.96;40.51
83264;BME280;73156;50.988;11.034;2024-02-23T01:16:36;96819.78;;;19.00;40.60
83264;BME280;73156;50.988;11.034;2024-02-23T01:19:02;96781.78;;;18.82;40.81
83264;BME280;73156;50.988;11.034;2024-02-23T01:21:28;96804.78;;;18.87;40.58
83264;BME280;73156;50.988;11.034;2024-02-23T01:23:53;96829.16;;;19.04;40.62
83264;BME280;73156;50.988;11.034;2024-02-23T01:26:19;96835.88;;;19.03;40.57
83264;BME280;73156;50.988;11.034;2024-02-23T01:28:44;96838.09;;;18.92;40.71
83264;BME280;73156;50.988;11.034;2024-02-23T01:31:10;96820.78;;;18.82;40.67
83264;BME280;73156;50.988;11.034;2024-02-23T01:33:37;96813.41;;;18.77;40.60
83264;BME280;73156;50.988;11.034;2024-02-23T01:36:04;96831.00;;;18.86;40.54
83264;BME280;73156;50.988;11.034;2024-02-23T01:38:29;96854.88;;;19.01;40.78
83264;BME280;73156;50.988;11.034;2024-02-23T01:40:57;96853.22;;;19.00;40.70
83264;BME280;73156;50.988;11.034;2024-02-23T01:43:22;96792.81;;;18.51;40.69
83264;BME280;73156;50.988;11.034;2024-02-23T01:45:48;96872.25;;;18.98;40.37
83264;BME280;73156;50.988;11.034;2024-02-23T01:48:13;96849.88;;;18.89;40.21
83264;BME280;73156;50.988;11.034;2024-02-23T01:50:39;96866.28;;;18.91;40.06
83264;BME280;73156;50.988;11.034;2024-02-23T01:53:05;96833.56;;;18.96;39.79
83264;BME280;73156;50.988;11.034;2024-02-23T01:55:31;96855.09;;;18.69;39.48
83264;BME280;73156;50.988;11.034;2024-02-23T01:57:57;96902.06;;;18.97;39.43
83264;BME280;73156;50.988;11.034;2024-02-23T02:00:23;96879.28;;;18.82;39.20
83264;BME280;73156;50.988;11.034;2024-02-23T02:02:48;96877.69;;;18.67;39.22
83264;BME280;73156;50.988;11.034;2024-02-23T02:05:14;96886.19;;;18.84;39.06
83264;BME280;73156;50.988;11.034;2024-02-23T02:07:42;96914.25;;;18.88;38.84
83264;BME280;73156;50.988;11.034;2024-02-23T02:10:09;96907.44;;;18.80;38.75
83264;BME280;73156;50.988;11.034;2024-02-23T02:12:35;96929.72;;;18.94;38.91
83264;BME280;73156;50.988;11.034;2024-02-23T02:15:01;96938.00;;;18.85;38.45
83264;BME280;73156;50.988;11.034;2024-02-23T02:17:27;96928.72;;;18.76;38.57
83264;BME280;73156;50.988;11.034;2024-02-23T02:19:53;96943.34;;;18.82;38.63
83264;BME280;73156;50.988;11.034;2024-02-23T02:22:18;96965.13;;;18.93;38.18
83264;BME280;73156;50.988;11.034;2024-02-23T02:24:43;96925.63;;;18.64;38.39
83264;BME280;73156;50.988;11.034;2024-02-23T02:27:11;96944.41;;;18.72;38.20
83264;BME280;73156;50.988;11.034;2024-02-23T02:29:36;96981.31;;;18.91;38.30
83264;BME280;73156;50.988;11.034;2024-02-23T02:32:02;96972.03;;;18.82;38.48
83264;BME280;73156;50.988;11.034;2024-02-23T02:34:27;96988.84;;;18.91;38.45
83264;BME280;73156;50.988;11.034;2024-02-23T02:36:53;96974.00;;;18.68;38.36
83264;BME280;73156;50.988;11.034;2024-02-23T02:39:19;97005.56;;;18.91;38.36
83264;BME280;73156;50.988;11.034;2024-02-23T02:41:44;96997.13;;;18.82;38.15
83264;BME280;73156;50.988;11.034;2024-02-23T02:44:09;97010.91;;;18.87;38.39
83264;BME280;73156;50.988;11.034;2024-02-23T02:46:35;96981.22;;;18.69;38.29
83264;BME280;73156;50.988;11.034;2024-02-23T02:49:00;97008.56;;;18.81;38.26
83264;BME280;73156;50.988;11.034;2024-02-23T02:51:26;97014.31;;;18.84;38.06
83264;BME280;73156;50.988;11.034;2024-02-23T02:53:51;96992.56;;;18.73;37.79
83264;BME280;73156;50.988;11.034;2024-02-23T02:56:16;97017.34;;;18.88;38.10
83264;BME280;73156;50.988;11.034;2024-02-23T02:58:42;97017.34;;;18.88;37.92
83264;BME280;73156;50.988;11.034;2024-02-23T03:01:07;96987.94;;;18.68;37.84
83264;BME280;73156;50.988;11.034;2024-02-23T03:03:33;97000.00;;;18.77;37.90
83264;BME280;73156;50.988;11.034;2024-02-23T03:05:58;97033.50;;;18.86;37.88
83264;BME280;73156;50.988;11.034;2024-02-23T03:08:24;97008.03;;;18.65;37.83
83264;BME280;73156;50.988;11.034;2024-02-23T03:10:49;96976.56;;;18.51;37.58
83264;BME280;73156;50.988;11.034;2024-02-23T03:13:14;97021.22;;;18.73;37.71
83264;BME280;73156;50.988;11.034;2024-02-23T03:15:39;97040.22;;;18.85;37.57
83264;BME280;73156;50.988;11.034;2024-02-23T03:18:05;97000.09;;;18.59;37.78
83264;BME280;73156;50.988;11.034;2024-02-23T03:20:30;97039.41;;;18.84;37.48
83264;BME280;73156;50.988;11.034;2024-02-23T03:22:55;97049.13;;;18.87;37.60
83264;BME280;73156;50.988;11.034;2024-02-23T03:25:21;97020.50;;;18.68;37.48
83264;BME280;73156;50.988;11.034;2024-02-23T03:27:46;97052.22;;;18.85;37.00
83264;BME280;73156;50.988;11.034;2024-02-23T03:30:11;97044.56;;;18.77;37.43
83264;BME280;73156;50.988;11.034;2024-02-23T03:32:36;97047.44;;;18.72;37.44
83264;BME280;73156;50.988;11.034;2024-02-23T03:35:03;97035.81;;;18.70;37.39
83264;BME280;73156;50.988;11.034;2024-02-23T03:37:29;97069.53;;;18.82;37.13
83264;BME280;73156;50.988;11.034;2024-02-23T03:39:54;97073.47;;;18.81;37.27
83264;BME280;73156;50.988;11.034;2024-02-23T03:42:19;97082.31;;;18.83;37.08
83264;BME280;73156;50.988;11.034;2024-02-23T03:44:45;97098.22;;;18.83;36.99
83264;BME280;73156;50.988;11.034;2024-02-23T03:47:10;97106.59;;;18.83;36.83
83264;BME280;73156;50.988;11.034;2024-02-23T03:49:35;97103.06;;;18.77;36.88
83264;BME280;73156;50.988;11.034;2024-02-23T03:52:01;97092.63;;;18.69;37.05
83264;BME280;73156;50.988;11.034;2024-02-23T03:54:26;97131.53;;;18.74;36.11
83264;BME280;73156;50.988;11.034;2024-02-23T03:56:52;97117.19;;;18.81;36.85
83264;BME280;73156;50.988;11.034;2024-02-23T03:59:17;97119.44;;;18.79;36.87
83264;BME280;73156;50.988;11.034;2024-02-23T04:01:42;97134.09;;;18.84;36.93
83264;BME280;73156;50.988;11.034;2024-02-23T04:04:07;97117.06;;;18.72;36.72
83264;BME280;73156;50.988;11.034;2024-02-23T04:06:35;97155.28;;;18.85;36.42
83264;BME280;73156;50.988;11.034;2024-02-23T04:09:01;97160.63;;;18.82;36.65
83264;BME280;73156;50.988;11.034;2024-02-23T04:11:26;97172.31;;;18.84;36.66
83264;BME280;73156;50.988;11.034;2024-02-23T04:13:52;97164.66;;;18.76;36.46
83264;BME280;73156;50.988;11.034;2024-02-23T04:16:17;97150.91;;;18.66;36.29
83264;BME280;73156;50.988;11.034;2024-02-23T04:18:42;97132.25;;;18.66;36.42
83264;BME280;73156;50.988;11.034;2024-02-23T04:21:08;97113.00;;;18.51;36.31
83264;BME280;73156;50.988;11.034;2024-02-23T04:23:33;97179.53;;;18.85;36.36
83264;BME280;73156;50.988;11.034;2024-02-23T04:25:58;97185.63;;;18.87;36.24
83264;BME280;73156;50.988;11.034;2024-02-23T04:28:24;97190.16;;;18.83;36.54
83264;BME280;73156;50.988;11.034;2024-02-23T04:30:51;97189.03;;;18.84;36.72
83264;BME280;73156;50.988;11.034;2024-02-23T04:33:17;97142.81;;;18.51;36.72
83264;BME280;73156;50.988;11.034;2024-02-23T04:35:42;97203.25;;;18.82;36.83
83264;BME280;73156;50.988;11.034;2024-02-23T04:38:07;97183.22;;;18.80;36.98
83264;BME280;73156;50.988;11.034;2024-02-23T04:40:32;97175.97;;;18.66;37.03
83264;BME280;73156;50.988;11.034;2024-02-23T04:42:58;97204.81;;;18.88;37.10
83264;BME280;73156;50.988;11.034;2024-02-23T04:45:23;97195.63;;;18.88;37.06
83264;BME280;73156;50.988;11.034;2024-02-23T04:47:48;97182.28;;;18.71;36.97
83264;BME280;73156;50.988;11.034;2024-02-23T04:50:14;97210.91;;;18.90;37.38
83264;BME280;73156;50.988;11.034;2024-02-23T04:52:39;97198.19;;;18.84;36.99
83264;BME280;73156;50.988;11.034;2024-02-23T04:55:05;97204.00;;;18.88;37.21
83264;BME280;73156;50.988;11.034;2024-02-23T04:57:31;97221.94;;;18.95;37.39
83264;BME280;73156;50.988;11.034;2024-02-23T04:59:56;97218.97;;;18.92;37.22
83264;BME280;73156;50.988;11.034;2024-02-23T05:02:21;97204.69;;;18.80;37.36
83264;BME280;73156;50.988;11.034;2024-02-23T05:04:47;97229.19;;;18.96;37.18
83264;BME280;73156;50.988;11.034;2024-02-23T05:07:12;97104.34;;;18.21;37.29
83264;BME280;73156;50.988;11.034;2024-02-23T05:09:37;97240.03;;;18.98;36.97
83264;BME280;73156;50.988;11.034;2024-02-23T05:12:03;97248.41;;;18.98;37.21
83264;BME280;73156;50.988;11.034;2024-02-23T05:14:28;97249.81;;;18.95;37.11
83264;BME280;73156;50.988;11.034;2024-02-23T05:16:54;97261.78;;;18.96;37.19
83264;BME280;73156;50.988;11.034;2024-02-23T05:19:19;97261.78;;;18.96;36.80
83264;BME280;73156;50.988;11.034;2024-02-23T05:21:44;97271.50;;;18.98;36.92
83264;BME280;73156;50.988;11.034;2024-02-23T05:24:11;97279.06;;;18.98;36.86
83264;BME280;73156;50.988;11.034;2024-02-23T05:26:36;97280.25;;;18.92;36.88
83264;BME280;73156;50.988;11.034;2024-02-23T05:29:02;97285.81;;;18.92;37.05
83264;BME280;73156;50.988;11.034;2024-02-23T05:31:53;97267.66;;;18.94;36.86
83264;BME280;73156;50.988;11.034;2024-02-23T05:34:19;97257.38;;;18.95;36.74
83264;BME280;73156;50.988;11.034;2024-02-23T05:36:45;97246.09;;;18.86;36.56
83264;BME280;73156;50.988;11.034;2024-02-23T05:39:14;97281.19;;;19.01;36.54
83264;BME280;73156;50.988;11.034;2024-02-23T05:41:40;97247.06;;;18.77;36.43
83264;BME280;73156;50.988;11.034;2024-02-23T05:44:06;97289.91;;;18.99;36.46
83264;BME280;73156;50.988;11.034;2024-02-23T05:46:32;97286.28;;;18.99;36.42
83264;BME280;73156;50.988;11.034;2024-02-23T05:48:58;97267.84;;;18.84;36.45
83264;BME280;73156;50.988;11.034;2024-02-23T05:51:23;97270.72;;;18.79;36.59
83264;BME280;73156;50.988;11.034;2024-02-23T05:53:49;97284.25;;;18.86;36.22
83264;BME280;73156;50.988;11.034;2024-02-23T05:56:14;97289.75;;;18.91;36.42
83264;BME280;73156;50.988;11.034;2024-02-23T05:58:40;97287.41;;;18.98;36.09
83264;BME280;73156;50.988;11.034;2024-02-23T06:01:05;97273.41;;;18.84;35.91
83264;BME280;73156;50.988;11.034;2024-02-23T06:03:32;97214.91;;;18.52;36.25
83264;BME280;73156;50.988;11.034;2024-02-23T06:05:57;97280.56;;;18.90;36.46
83264;BME280;73156;50.988;11.034;2024-02-23T06:08:24;97285.19;;;18.81;35.97
83264;BME280;73156;50.988;11.034;2024-02-23T06:10:49;97307.22;;;18.96;35.85
83264;BME280;73156;50.988;11.034;2024-02-23T06:13:14;97269.88;;;18.79;35.97
83264;BME280;73156;50.988;11.034;2024-02-23T06:15:39;97299.91;;;19.00;35.70
83264;BME280;73156;50.988;11.034;2024-02-23T06:18:05;97270.50;;;18.76;35.92
83264;BME280;73156;50.988;11.034;2024-02-23T06:20:31;97299.06;;;19.00;35.67
83264;BME280;73156;50.988;11.034;2024-02-23T06:22:57;97284.03;;;18.82;35.80
83264;BME280;73156;50.988;11.034;2024-02-23T06:25:22;97317.13;;;19.02;35.74
83264;BME280;73156;50.988;11.034;2024-02-23T06:27:47;97318.81;;;19.03;35.59
83264;BME280;73156;50.988;11.034;2024-02-23T06:30:13;97292.09;;;18.84;35.68
83264;BME280;73156;50.988;11.034;2024-02-23T06:32:38;97333.25;;;19.05;35.34
83264;BME280;73156;50.988;11.034;2024-02-23T06:35:03;97320.53;;;18.99;35.30
83264;BME280;73156;50.988;11.034;2024-02-23T06:37:31;97317.22;;;18.79;35.68
83264;BME280;73156;50.988;11.034;2024-02-23T06:39:56;97328.66;;;18.96;35.70
83264;BME280;73156;50.988;11.034;2024-02-23T06:42:22;97322.94;;;18.87;35.12
83264;BME280;73156;50.988;11.034;2024-02-23T06:44:47;97347.19;;;19.05;35.14
83264;BME280;73156;50.988;11.034;2024-02-23T06:47:13;97359.91;;;19.11;34.97
83264;BME280;73156;50.988;11.034;2024-02-23T06:49:43;97356.59;;;19.09;35.01
83264;BME280;73156;50.988;11.034;2024-02-23T06:52:08;97316.94;;;18.80;34.92
83264;BME280;73156;50.988;11.034;2024-02-23T06:54:34;97374.34;;;19.13;35.05
83264;BME280;73156;50.988;11.034;2024-02-23T06:56:59;97376.09;;;19.09;34.73
83264;BME280;73156;50.988;11.034;2024-02-23T06:59:24;97391.09;;;19.13;34.84
83264;BME280;73156;50.988;11.034;2024-02-23T07:01:50;97357.44;;;18.91;35.21
83264;BME280;73156;50.988;11.034;2024-02-23T07:04:16;97349.69;;;18.88;34.84
83264;BME280;73156;50.988;11.034;2024-02-23T07:06:42;97391.72;;;19.10;34.61
83264;BME280;73156;50.988;11.034;2024-02-23T07:09:07;97399.53;;;19.08;34.72
83264;BME280;73156;50.988;11.034;2024-02-23T07:11:33;97394.81;;;19.09;34.68
83264;BME280;73156;50.988;11.034;2024-02-23T07:13:58;97397.03;;;19.07;34.80
83264;BME280;73156;50.988;11.034;2024-02-23T07:16:23;97391.25;;;19.03;34.55
83264;BME280;73156;50.988;11.034;2024-02-23T07:18:49;97336.34;;;18.67;34.72
83264;BME280;73156;50.988;11.034;2024-02-23T07:21:17;97391.03;;;19.00;34.88
83264;BME280;73156;50.988;11.034;2024-02-23T07:23:42;97343.59;;;18.68;34.71
83264;BME280;73156;50.988;11.034;2024-02-23T07:26:08;97364.50;;;18.65;34.94
83264;BME280;73156;50.988;11.034;2024-02-23T07:28:33;97419.28;;;18.93;34.83
83264;BME280;73156;50.988;11.034;2024-02-23T07:30:58;97412.34;;;18.91;34.71
83264;BME280;73156;50.988;11.034;2024-02-23T07:33:23;97409.63;;;18.86;34.73
83264;BME280;73156;50.988;11.034;2024-02-23T07:35:49;97412.66;;;18.89;34.43
83264;BME280;73156;50.988;11.034;2024-02-23T07:38:14;97406.03;;;18.85;34.88
83264;BME280;73156;50.988;11.034;2024-02-23T07:40:39;97396.97;;;18.75;34.92
83264;BME280;73156;50.988;11.034;2024-02-23T07:43:05;97367.75;;;18.54;34.91
83264;BME280;73156;50.988;11.034;2024-02-23T07:45:30;97416.41;;;18.80;35.10
83264;BME280;73156;50.988;11.034;2024-02-23T07:47:56;97423.16;;;18.74;35.04
83264;BME280;73156;50.988;11.034;2024-02-23T07:50:21;97376.41;;;18.52;34.72
83264;BME280;73156;50.988;11.034;2024-02-23T07:52:46;97396.66;;;18.76;34.97
83264;BME280;73156;50.988;11.034;2024-02-23T07:55:11;97402.22;;;18.76;34.80
83264;BME280;73156;50.988;11.034;2024-02-23T07:57:37;97391.09;;;18.76;34.99
83264;BME280;73156;50.988;11.034;2024-02-23T08:00:05;97378.97;;;18.67;34.95
83264;BME280;73156;50.988;11.034;2024-02-23T08:02:30;97353.28;;;18.52;34.62
83264;BME280;73156;50.988;11.034;2024-02-23T08:04:55;97373.78;;;18.61;34.85
83264;BME280;73156;50.988;11.034;2024-02-23T08:07:21;97402.47;;;18.80;34.57
83264;BME280;73156;50.988;11.034;2024-02-23T08:09:47;97390.50;;;18.79;34.53
83264;BME280;73156;50.988;11.034;2024-02-23T08:12:13;97395.78;;;18.81;34.46
83264;BME280;73156;50.988;11.034;2024-02-23T08:14:38;97388.56;;;18.80;34.54
83264;BME280;73156;50.988;11.034;2024-02-23T08:17:04;97390.50;;;18.79;34.59
83264;BME280;73156;50.988;11.034;2024-02-23T08:19:29;97397.50;;;18.77;34.46
83264;BME280;73156;50.988;11.034;2024-02-23T08:21:55;97398.63;;;18.76;34.80
83264;BME280;73156;50.988;11.034;2024-02-23T08:24:20;97395.78;;;18.81;34.67
83264;BME280;73156;50.988;11.034;2024-02-23T08:26:46;97415.56;;;18.79;34.79
83264;BME280;73156;50.988;11.034;2024-02-23T08:29:11;97421.91;;;18.85;34.57
83264;BME280;73156;50.988;11.034;2024-02-23T08:31:36;97418.72;;;18.91;34.42
83264;BME280;73156;50.988;11.034;2024-02-23T08:34:01;97415.94;;;18.91;34.38
83264;BME280;73156;50.988;11.034;2024-02-23T08:36:27;97428.53;;;18.89;34.45
83264;BME280;73156;50.988;11.034;2024-02-23T08:38:52;97404.56;;;18.69;34.68
83264;BME280;73156;50.988;11.034;2024-02-23T08:41:17;97443.81;;;18.91;34.57
83264;BME280;73156;50.988;11.034;2024-02-23T08:43:43;97436.66;;;18.85;34.71
83264;BME280;73156;50.988;11.034;2024-02-23T08:46:08;97418.44;;;18.74;34.12
83264;BME280;73156;50.988;11.034;2024-02-23T08:48:33;97448.41;;;19.01;34.33
83264;BME280;73156;50.988;11.034;2024-02-23T08:50:58;97421.69;;;18.81;34.09
83264;BME280;73156;50.988;11.034;2024-02-23T08:53:24;97452.03;;;19.01;34.15
83264;BME280;73156;50.988;11.034;2024-02-23T08:55:49;97453.38;;;19.04;34.15
83264;BME280;73156;50.988;11.034;2024-02-23T08:58:14;97453.09;;;19.05;34.45
83264;BME280;73156;50.988;11.034;2024-02-23T09:00:39;97418.81;;;18.86;33.95
83264;BME280;73156;50.988;11.034;2024-02-23T09:03:04;97456.41;;;19.07;34.16
83264;BME280;73156;50.988;11.034;2024-02-23T09:05:30;97448.72;;;18.99;33.95
83264;BME280;73156;50.988;11.034;2024-02-23T09:07:55;97466.44;;;19.08;34.21
83264;BME280;73156;50.988;11.034;2024-02-23T09:10:20;97473.66;;;19.09;34.27
83264;BME280;73156;50.988;11.034;2024-02-23T09:12:46;97445.47;;;18.92;34.32
83264;BME280;73156;50.988;11.034;2024-02-23T09:15:11;97477.50;;;19.13;34.54
83264;BME280;73156;50.988;11.034;2024-02-23T09:17:36;97489.47;;;19.14;34.82
83264;BME280;73156;50.988;11.034;2024-02-23T09:20:02;97472.75;;;19.14;35.75
83264;BME280;73156;50.988;11.034;2024-02-23T09:22:27;97476.00;;;19.21;35.62
83264;BME280;73156;50.988;11.034;2024-02-23T09:24:53;97468.78;;;19.20;35.69
83264;BME280;73156;50.988;11.034;2024-02-23T09:27:20;97475.66;;;19.27;35.41
83264;BME280;73156;50.988;11.034;2024-02-23T09:29:46;97456.25;;;19.17;35.39
83264;BME280;73156;50.988;11.034;2024-02-23T09:32:11;97489.41;;;19.19;35.61
83264;BME280;73156;50.988;11.034;2024-02-23T09:34:36;97485.44;;;19.25;35.31
83264;BME280;73156;50.988;11.034;2024-02-23T09:37:02;97426.50;;;18.94;35.11
83264;BME280;73156;50.988;11.034;2024-02-23T09:39:27;97459.41;;;19.11;35.22
83264;BME280;73156;50.988;11.034;2024-02-23T09:41:55;97500.75;;;19.27;34.86
83264;BME280;73156;50.988;11.034;2024-02-23T09:44:22;97481.34;;;19.17;34.69
83264;BME280;73156;50.988;11.034;2024-02-23T09:46:47;97494.34;;;19.27;34.63
83264;BME280;73156;50.988;11.034;2024-02-23T09:49:14;97507.44;;;19.26;34.63
83264;BME280;73156;50.988;11.034;2024-02-23T09:51:41;97460.47;;;18.96;34.56
83264;BME280;73156;50.988;11.034;2024-02-23T09:54:07;97497.66;;;19.29;34.36
83264;BME280;73156;50.988;11.034;2024-02-23T09:56:32;97456.72;;;19.06;34.22
83264;BME280;73156;50.988;11.034;2024-02-23T09:59:01;97504.28;;;19.33;34.02
83264;BME280;73156;50.988;11.034;2024-02-23T10:01:31;97462.50;;;19.09;33.88
83264;BME280;73156;50.988;11.034;2024-02-23T10:03:57;97511.53;;;19.34;33.60
83264;BME280;73156;50.988;11.034;2024-02-23T10:06:24;97499.84;;;19.32;33.90
83264;BME280;73156;50.988;11.034;2024-02-23T10:08:49;97501.56;;;19.28;34.03
83264;BME280;73156;50.988;11.034;2024-02-23T10:11:18;97481.28;;;19.22;33.78
83264;BME280;73156;50.988;11.034;2024-02-23T10:13:43;97499.31;;;19.30;33.95
83264;BME280;73156;50.988;11.034;2024-02-23T10:16:08;97470.34;;;19.07;34.02
83264;BME280;73156;50.988;11.034;2024-02-23T10:18:33;97511.00;;;19.32;34.03
83264;BME280;73156;50.988;11.034;2024-02-23T10:20:59;97501.88;;;19.26;33.67
83264;BME280;73156;50.988;11.034;2024-02-23T10:23:24;97501.19;;;19.34;33.66
83264;BME280;73156;50.988;11.034;2024-02-23T10:25:50;97511.38;;;19.44;33.40
83264;BME280;73156;50.988;11.034;2024-02-23T10:28:15;97511.91;;;19.46;33.12
83264;BME280;73156;50.988;11.034;2024-02-23T10:30:41;97513.84;;;19.45;33.01
83264;BME280;73156;50.988;11.034;2024-02-23T10:33:07;97464.09;;;19.15;33.21
83264;BME280;73156;50.988;11.034;2024-02-23T10:35:37;97475.16;;;19.20;33.18
83264;BME280;73156;50.988;11.034;2024-02-23T10:38:08;97483.31;;;19.17;33.33
83264;BME280;73156;50.988;11.034;2024-02-23T10:40:38;97507.47;;;19.45;33.29
83264;BME280;73156;50.988;11.034;2024-02-23T10:43:07;97517.78;;;19.44;33.00
83264;BME280;73156;50.988;11.034;2024-02-23T10:45:36;97503.28;;;19.42;33.25
83264;BME280;73156;50.988;11.034;2024-02-23T10:48:03;97503.84;;;19.44;32.99
83264;BME280;73156;50.988;11.034;2024-02-23T10:50:29;97502.41;;;19.47;32.85
83264;BME280;73156;50.988;11.034;2024-02-23T10:52:55;97478.69;;;19.31;32.89
83264;BME280;73156;50.988;11.034;2024-02-23T10:55:21;97505.50;;;19.45;32.85
83264;BME280;73156;50.988;11.034;2024-02-23T10:57:48;97506.31;;;19.46;32.96
83264;BME280;73156;50.988;11.034;2024-02-23T11:00:15;97504.03;;;19.48;33.14
83264;BME280;73156;50.988;11.034;2024-02-23T11:02:49;97512.72;;;19.46;33.10
83264;BME280;73156;50.988;11.034;2024-02-23T11:05:15;97510.75;;;19.47;32.91
83264;BME280;73156;50.988;11.034;2024-02-23T11:07:41;97512.72;;;19.46;32.87
83264;BME280;73156;50.988;11.034;2024-02-23T11:10:07;97514.31;;;19.52;32.78
83264;BME280;73156;50.988;11.034;2024-02-23T11:12:34;97518.53;;;19.50;32.49
83264;BME280;73156;50.988;11.034;2024-02-23T11:15:00;97493.59;;;19.40;32.50
83264;BME280;73156;50.988;11.034;2024-02-23T11:17:27;97511.22;;;19.54;32.36
83264;BME280;73156;50.988;11.034;2024-02-23T11:19:54;97519.59;;;19.54;32.59
83264;BME280;73156;50.988;11.034;2024-02-23T11:22:40;97524.31;;;19.53;32.39
83264;BME280;73156;50.988;11.034;2024-02-23T11:25:07;97519.88;;;19.52;32.60
83264;BME280;73156;50.988;11.034;2024-02-23T11:27:37;97507.75;;;19.43;32.80
83264;BME280;73156;50.988;11.034;2024-02-23T11:30:04;97515.16;;;19.53;32.58
83264;BME280;73156;50.988;11.034;2024-02-23T11:32:42;97483.94;;;19.32;32.42
83264;BME280;73156;50.988;11.034;2024-02-23T11:35:10;97475.34;;;19.29;32.64
83264;BME280;73156;50.988;11.034;2024-02-23T11:37:56;97521.63;;;19.48;32.67
83264;BME280;73156;50.988;11.034;2024-02-23T11:40:25;97523.81;;;19.52;32.40
83264;BME280;73156;50.988;11.034;2024-02-23T11:42:50;97470.97;;;19.23;32.09
83264;BME280;73156;50.988;11.034;2024-02-23T11:45:16;97526.31;;;19.53;32.27
83264;BME280;73156;50.988;11.034;2024-02-23T11:47:41;97535.03;;;19.46;32.50
83264;BME280;73156;50.988;11.034;2024-02-23T11:50:10;97534.72;;;19.48;32.45
83264;BME280;73156;50.988;11.034;2024-02-23T11:52:38;97530.84;;;19.49;32.47
83264;BME280;73156;50.988;11.034;2024-02-23T11:55:04;97522.47;;;19.49;32.33
83264;BME280;73156;50.988;11.034;2024-02-23T11:57:36;97496.97;;;19.37;32.56
83264;BME280;73156;50.988;11.034;2024-02-23T12:00:04;97518.63;;;19.45;32.53
83264;BME280;73156;50.988;11.034;2024-02-23T12:02:31;97518.97;;;19.38;32.72
83264;BME280;73156;50.988;11.034;2024-02-23T12:04:57;97473.34;;;19.11;32.42
83264;BME280;73156;50.988;11.034;2024-02-23T12:07:22;97465.75;;;19.16;32.09
83264;BME280;73156;50.988;11.034;2024-02-23T12:09:47;97516.66;;;19.45;32.21
83264;BME280;73156;50.988;11.034;2024-02-23T12:12:13;97506.03;;;19.48;31.85
83264;BME280;73156;50.988;11.034;2024-02-23T12:14:39;97463.19;;;19.20;32.14
83264;BME280;73156;50.988;11.034;2024-02-23T12:17:05;97509.13;;;19.46;31.78
83264;BME280;73156;50.988;11.034;2024-02-23T12:19:31;97506.63;;;19.44;31.90
83264;BME280;73156;50.988;11.034;2024-02-23T12:22:00;97500.91;;;19.36;31.92
83264;BME280;73156;50.988;11.034;2024-02-23T12:24:26;97511.97;;;19.41;31.45
83264;BME280;73156;50.988;11.034;2024-02-23T12:26:54;97507.22;;;19.41;31.46
83264;BME280;73156;50.988;11.034;2024-02-23T12:29:20;97507.53;;;19.40;31.30
83264;BME280;73156;50.988;11.034;2024-02-23T12:31:45;97511.75;;;19.37;31.34
83264;BME280;73156;50.988;11.034;2024-02-23T12:34:11;97497.91;;;19.32;31.00
83264;BME280;73156;50.988;11.034;2024-02-23T12:36:38;97495.41;;;19.31;31.26
83264;BME280;73156;50.988;11.034;2024-02-23T12:39:04;97498.50;;;19.29;30.92
83264;BME280;73156;50.988;11.034;2024-02-23T12:41:29;97488.78;;;19.22;31.11
83264;BME280;73156;50.988;11.034;2024-02-23T12:43:54;97495.16;;;19.27;30.95